createdAt,value
2019-01-12T00:03:05.157Z,10
2019-01-12T00:08:07.631Z,12
2019-01-12T00:13:10.062Z,9
2019-01-12T00:18:12.545Z,10
2019-01-12T00:23:14.967Z,7
2019-01-12T00:28:17.518Z,9
2019-01-12T00:33:19.890Z,13
2019-01-12T00:38:22.375Z,9
2019-01-12T00:43:24.789Z,11
2019-01-12T00:53:29.706Z,8
2019-01-12T00:58:32.236Z,7
2019-01-12T01:03:34.624Z,13
2019-01-12T01:08:37.083Z,7
2019-01-12T01:13:39.686Z,13
2019-01-12T01:18:42.014Z,9
2019-01-12T01:23:44.458Z,13
2019-01-12T01:28:46.914Z,11
2019-01-12T01:33:49.441Z,10
2019-01-12T01:38:51.833Z,13
2019-01-12T01:43:54.278Z,12
2019-01-12T01:48:56.739Z,10
2019-01-12T01:53:59.178Z,15
2019-01-12T01:59:01.702Z,11
2019-01-12T02:04:04.109Z,17
2019-01-12T02:09:06.551Z,12
2019-01-12T02:14:09.014Z,12
2019-01-12T02:19:11.473Z,13
2019-01-12T02:24:13.933Z,13
2019-01-12T02:29:16.444Z,9
2019-01-12T02:34:18.847Z,9
2019-01-12T02:39:21.373Z,15
2019-01-12T02:44:23.764Z,17
2019-01-12T02:49:26.232Z,9
2019-01-12T02:54:28.752Z,13
2019-01-12T02:59:31.205Z,14
2019-01-12T03:04:33.603Z,11
2019-01-12T03:09:36.047Z,10
2019-01-12T03:14:38.496Z,16
2019-01-12T03:19:40.955Z,15
2019-01-12T03:24:43.447Z,11
2019-01-12T03:29:45.896Z,8
2019-01-12T03:34:48.317Z,13
2019-01-12T03:39:50.787Z,7
2019-01-12T03:44:53.249Z,22
2019-01-12T03:49:55.707Z,18
2019-01-12T03:54:58.224Z,12
2019-01-12T04:00:00.700Z,7
2019-01-12T04:05:03.067Z,11
2019-01-12T04:10:05.553Z,8
2019-01-12T04:15:07.995Z,11
2019-01-12T04:20:10.453Z,13
2019-01-12T04:25:13.003Z,9
2019-01-12T04:30:15.369Z,14
2019-01-12T04:35:17.810Z,6
2019-01-12T04:40:20.306Z,12
2019-01-12T04:45:22.763Z,9
2019-01-12T04:50:25.188Z,11
2019-01-12T04:55:27.642Z,11
2019-01-12T05:00:30.186Z,8
2019-01-12T05:05:32.704Z,13
2019-01-12T05:10:35.038Z,12
2019-01-12T05:15:37.534Z,9
2019-01-12T05:20:40.075Z,9
2019-01-12T05:25:48.827Z,20
2019-01-12T05:30:49.833Z,11
2019-01-12T05:35:47.349Z,13
2019-01-12T05:40:49.791Z,12
2019-01-12T05:45:52.298Z,11
2019-01-12T05:50:54.718Z,7
2019-01-12T05:55:59.113Z,7
2019-01-12T06:00:59.579Z,13
2019-01-12T06:06:02.060Z,14
2019-01-12T06:11:04.502Z,14
2019-01-12T06:16:06.976Z,10
2019-01-12T06:21:09.424Z,13
2019-01-12T06:26:11.868Z,8
2019-01-12T06:31:14.358Z,3
2019-01-12T06:36:16.806Z,9
2019-01-12T06:41:19.233Z,6
2019-01-12T06:46:21.701Z,15
2019-01-12T06:51:24.329Z,13
2019-01-12T06:56:26.609Z,12
2019-01-12T07:01:29.083Z,7
2019-01-12T07:06:31.541Z,5
2019-01-12T07:11:33.972Z,10
2019-01-12T07:16:36.435Z,13
2019-01-12T07:21:38.883Z,8
2019-01-12T07:26:41.400Z,14
2019-01-12T07:31:43.809Z,9
2019-01-12T07:36:46.322Z,6
2019-01-12T07:41:48.709Z,5
2019-01-12T07:46:51.265Z,7
2019-01-12T07:51:53.631Z,10
2019-01-12T07:56:56.093Z,9
2019-01-12T08:01:58.548Z,8
2019-01-12T08:07:01.003Z,5
2019-01-12T08:12:03.460Z,4
2019-01-12T08:17:05.922Z,2
2019-01-12T08:22:08.398Z,10
2019-01-12T08:27:10.831Z,4
2019-01-12T08:32:13.299Z,6
2019-01-12T08:37:15.740Z,5
2019-01-12T08:42:18.209Z,2
2019-01-12T08:47:20.674Z,3
2019-01-12T08:52:23.112Z,1
2019-01-12T08:57:25.562Z,2
2019-01-12T09:02:28.027Z,4
2019-01-12T09:07:30.479Z,2
2019-01-12T09:12:32.946Z,2
2019-01-12T09:17:35.399Z,2
2019-01-12T09:22:37.862Z,3
2019-01-12T09:27:40.352Z,3
2019-01-12T09:32:42.776Z,4
2019-01-12T09:37:45.230Z,4
2019-01-12T09:42:47.685Z,3
2019-01-12T09:47:50.175Z,2
2019-01-12T09:52:52.603Z,2
2019-01-12T09:57:55.084Z,5
2019-01-12T10:02:57.505Z,2
2019-01-12T10:07:59.972Z,2
2019-01-12T10:13:02.505Z,3
2019-01-12T10:18:05.025Z,2
2019-01-12T10:23:07.367Z,3
2019-01-12T10:28:09.803Z,2
2019-01-12T10:33:12.261Z,2
2019-01-12T10:38:14.706Z,2
2019-01-12T10:43:17.180Z,2
2019-01-12T10:48:19.641Z,2
2019-01-12T10:53:22.078Z,2
2019-01-12T10:58:24.535Z,2
2019-01-12T11:03:27.022Z,2
2019-01-12T11:08:29.462Z,2
2019-01-12T11:13:31.910Z,2
2019-01-12T11:18:34.376Z,1
2019-01-12T11:23:36.827Z,1
2019-01-12T11:28:39.302Z,2
2019-01-12T11:33:41.788Z,2
2019-01-12T11:38:44.233Z,3
2019-01-12T11:43:46.673Z,1
2019-01-12T11:48:49.147Z,2
2019-01-12T11:53:51.598Z,3
2019-01-12T11:58:54.078Z,2
2019-01-12T12:03:56.528Z,2
2019-01-12T12:08:58.975Z,4
2019-01-12T12:14:01.524Z,2
2019-01-12T12:19:03.915Z,2
2019-01-12T12:24:06.406Z,1
2019-01-12T12:29:08.822Z,2
2019-01-12T12:34:11.300Z,2
2019-01-12T12:39:13.757Z,2
2019-01-12T12:44:16.239Z,2
2019-01-12T12:49:18.665Z,2
2019-01-12T12:54:21.143Z,2
2019-01-12T12:59:23.721Z,2
2019-01-12T13:04:26.070Z,3
2019-01-12T13:09:28.568Z,4
2019-01-12T13:14:30.966Z,7
2019-01-12T13:19:33.419Z,3
2019-01-12T13:24:35.848Z,4
2019-01-12T13:29:38.307Z,2
2019-01-12T13:34:40.825Z,3
2019-01-12T13:39:43.243Z,5
2019-01-12T13:44:45.709Z,3
2019-01-12T13:49:48.190Z,3
2019-01-12T13:54:50.595Z,2
2019-01-12T13:59:53.043Z,3
2019-01-12T14:04:55.504Z,2
2019-01-12T14:09:57.961Z,3
2019-01-12T14:15:00.442Z,3
2019-01-12T14:20:02.932Z,3
2019-01-12T14:25:05.338Z,3
2019-01-12T14:30:07.794Z,2
2019-01-12T14:35:10.267Z,3
2019-01-12T14:40:12.736Z,1
2019-01-12T14:45:15.181Z,2
2019-01-12T14:50:17.634Z,5
2019-01-12T14:55:20.075Z,3
2019-01-12T15:00:22.579Z,3
2019-01-12T15:05:25.008Z,3
2019-01-12T15:10:27.451Z,4
2019-01-12T15:15:29.930Z,4
2019-01-12T15:20:32.444Z,4
2019-01-12T15:25:34.861Z,3
2019-01-12T15:30:37.290Z,4
2019-01-12T15:35:39.743Z,3
2019-01-12T15:40:42.191Z,3
2019-01-12T15:45:44.637Z,2
2019-01-12T15:50:47.120Z,3
2019-01-12T15:55:49.562Z,2
2019-01-12T16:00:52.139Z,4
2019-01-12T16:05:54.489Z,1
2019-01-12T16:10:56.931Z,2
2019-01-12T16:15:59.386Z,1
2019-01-12T16:21:01.940Z,2
2019-01-12T16:26:04.321Z,1
2019-01-12T16:31:06.799Z,2
2019-01-12T16:36:09.267Z,1
2019-01-12T16:41:11.668Z,2
2019-01-12T16:46:14.136Z,2
2019-01-12T16:51:16.592Z,1
2019-01-12T16:56:19.080Z,2
2019-01-12T17:01:21.508Z,1
2019-01-12T17:06:24.001Z,2
2019-01-12T17:11:26.433Z,2
2019-01-12T17:16:28.863Z,1
2019-01-12T17:21:31.407Z,2
2019-01-12T17:26:33.811Z,2
2019-01-12T17:31:36.248Z,2
2019-01-12T17:36:38.731Z,1
2019-01-12T17:41:41.171Z,2
2019-01-12T17:46:43.646Z,1
2019-01-12T17:51:46.098Z,2
2019-01-12T17:56:49.347Z,2
2019-01-12T18:01:50.990Z,2
2019-01-12T18:06:53.446Z,2
2019-01-12T18:11:55.893Z,2
2019-01-12T18:16:58.397Z,1
2019-01-12T18:22:00.815Z,2
2019-01-12T18:27:03.276Z,1
2019-01-12T18:32:05.717Z,1
2019-01-12T18:37:08.175Z,1
2019-01-12T18:42:10.634Z,2
2019-01-12T18:47:13.120Z,2
2019-01-12T18:52:15.558Z,1
2019-01-12T18:57:18.002Z,2
2019-01-12T19:02:20.469Z,1
2019-01-12T19:07:22.915Z,2
2019-01-12T19:12:25.378Z,2
2019-01-12T19:17:27.833Z,2
2019-01-12T19:22:30.295Z,2
2019-01-12T19:27:32.751Z,1
2019-01-12T19:32:35.202Z,2
2019-01-12T19:37:37.658Z,2
2019-01-12T19:42:40.136Z,2
2019-01-12T19:47:42.575Z,2
2019-01-12T19:52:45.054Z,2
2019-01-12T19:57:47.598Z,2
2019-01-12T20:02:50.073Z,2
2019-01-12T20:07:52.409Z,2
2019-01-12T20:12:54.872Z,2
2019-01-12T20:17:57.314Z,2
2019-01-12T20:22:59.781Z,2
2019-01-12T20:28:02.244Z,1
2019-01-12T20:33:04.685Z,2
2019-01-12T20:38:07.142Z,2
2019-01-12T20:43:09.598Z,2
2019-01-12T20:48:12.059Z,1
2019-01-12T20:53:14.522Z,2
2019-01-12T20:58:16.972Z,2
2019-01-12T21:03:19.426Z,2
2019-01-12T21:08:21.897Z,2
2019-01-12T21:13:24.338Z,1
2019-01-12T21:18:26.801Z,1
2019-01-12T21:23:29.265Z,1
2019-01-12T21:28:31.704Z,1
2019-01-12T21:33:34.173Z,1
2019-01-12T21:38:36.625Z,2
2019-01-12T21:43:39.095Z,2
2019-01-12T21:48:41.547Z,2
2019-01-12T21:53:44.008Z,2
2019-01-12T21:58:46.449Z,2
2019-01-12T22:03:48.927Z,1
2019-01-12T22:08:51.372Z,1
2019-01-12T22:13:53.822Z,2
2019-01-12T22:18:56.282Z,2
2019-01-12T22:23:58.799Z,3
2019-01-12T22:29:01.275Z,2
2019-01-12T22:34:03.713Z,2
2019-01-12T22:39:06.151Z,2
2019-01-12T22:44:08.565Z,2
2019-01-12T22:49:11.016Z,3
2019-01-12T22:54:13.488Z,3
2019-01-12T22:59:16.082Z,2
2019-01-12T23:04:18.408Z,3
2019-01-12T23:09:20.851Z,2
2019-01-12T23:14:23.328Z,2
2019-01-12T23:19:25.796Z,1
2019-01-12T23:24:28.211Z,1
2019-01-12T23:29:30.681Z,1
2019-01-12T23:34:33.142Z,1
2019-01-12T23:39:35.616Z,1
2019-01-12T23:44:38.057Z,1
2019-01-12T23:49:40.525Z,2
2019-01-12T23:54:42.957Z,2
2019-01-12T23:59:45.417Z,2
